createdAt,value
2022-08-04T00:00:17.690Z,3.30
2022-08-04T00:02:58.109Z,3.13
2022-08-04T00:05:36.946Z,2.93
2022-08-04T00:08:17.356Z,3.00
2022-08-04T00:10:51.283Z,3.00
2022-08-04T00:13:24.762Z,2.70
2022-08-04T00:15:54.729Z,2.77
2022-08-04T00:18:27.822Z,2.90
2022-08-04T00:21:01.637Z,2.83
2022-08-04T00:24:10.643Z,2.90
2022-08-04T00:26:21.978Z,2.77
2022-08-04T00:28:50.340Z,3.10
2022-08-04T00:31:19.362Z,3.00
2022-08-04T00:34:07.258Z,2.80
2022-08-04T00:36:36.704Z,2.83
2022-08-04T00:39:04.761Z,2.70
2022-08-04T00:41:56.280Z,2.83
2022-08-04T00:44:37.787Z,3.20
2022-08-04T00:47:20.210Z,3.13
2022-08-04T00:50:05.424Z,3.00
2022-08-04T00:52:43.725Z,2.80
2022-08-04T00:55:28.311Z,2.90
2022-08-04T00:58:16.487Z,2.57
2022-08-04T01:00:55.855Z,2.63
2022-08-04T01:03:34.521Z,2.70
2022-08-04T01:06:10.473Z,2.80
2022-08-04T01:08:51.770Z,2.90
2022-08-04T01:11:32.369Z,2.70
2022-08-04T01:14:35.462Z,2.80
2022-08-04T01:17:14.910Z,3.00
2022-08-04T01:19:55.578Z,2.77
2022-08-04T01:22:59.017Z,2.63
2022-08-04T01:25:51.935Z,3.17
2022-08-04T01:28:31.454Z,2.90
2022-08-04T01:31:14.491Z,3.00
2022-08-04T01:34:03.589Z,3.00
2022-08-04T01:36:35.475Z,2.90
2022-08-04T01:39:25.872Z,3.30
2022-08-04T01:41:57.762Z,3.03
2022-08-04T01:44:29.537Z,3.40
2022-08-04T01:47:01.647Z,3.10
2022-08-04T01:49:32.127Z,3.10
2022-08-04T01:52:11.854Z,3.03
2022-08-04T01:54:42.966Z,3.60
2022-08-04T01:57:37.591Z,3.23
2022-08-04T02:00:01.303Z,3.53
2022-08-04T02:02:31.107Z,3.20
2022-08-04T02:04:59.213Z,3.80
2022-08-04T02:07:41.417Z,3.57
2022-08-04T02:10:19.569Z,3.60
2022-08-04T02:12:57.238Z,3.50
2022-08-04T02:15:30.124Z,3.50
2022-08-04T02:18:05.411Z,3.50
2022-08-04T02:20:36.067Z,3.70
2022-08-04T02:23:07.037Z,3.43
2022-08-04T02:25:40.505Z,3.53
2022-08-04T02:28:23.006Z,3.60
2022-08-04T02:30:58.964Z,3.33
2022-08-04T02:33:37.074Z,3.10
2022-08-04T02:36:06.568Z,3.10
2022-08-04T02:38:48.669Z,3.40
2022-08-04T02:41:18.252Z,3.30
2022-08-04T02:43:52.072Z,3.13
2022-08-04T02:46:22.391Z,3.07
2022-08-04T02:48:53.959Z,3.17
2022-08-04T02:51:25.760Z,3.33
2022-08-04T02:53:55.966Z,3.60
2022-08-04T02:56:25.074Z,3.20
2022-08-04T02:58:55.081Z,3.40
2022-08-04T03:01:24.206Z,3.50
2022-08-04T03:04:24.136Z,3.30
2022-08-04T03:07:25.153Z,3.80
2022-08-04T03:10:31.422Z,3.60
2022-08-04T03:13:26.340Z,3.40
2022-08-04T03:16:33.484Z,3.20
2022-08-04T03:19:34.860Z,3.77
2022-08-04T03:23:11.485Z,3.50
2022-08-04T03:26:10.568Z,3.30
2022-08-04T03:29:35.151Z,3.47
2022-08-04T03:32:34.374Z,3.50
2022-08-04T03:35:22.774Z,2.93
2022-08-04T03:38:18.226Z,3.33
2022-08-04T03:41:05.274Z,3.40
2022-08-04T03:44:12.704Z,3.43
2022-08-04T03:47:13.463Z,3.07
2022-08-04T03:50:14.631Z,3.40
2022-08-04T03:53:09.546Z,3.50
2022-08-04T03:56:16.836Z,3.40
2022-08-04T03:58:54.620Z,3.40
2022-08-04T04:02:02.905Z,3.57
2022-08-04T04:04:48.121Z,3.30
2022-08-04T04:08:13.798Z,3.30
2022-08-04T04:11:31.252Z,3.73
2022-08-04T04:14:16.284Z,3.50
2022-08-04T04:16:59.853Z,3.00
2022-08-04T04:19:52.501Z,3.60
2022-08-04T04:22:55.153Z,3.60
2022-08-04T04:25:36.871Z,3.23
2022-08-04T04:28:46.990Z,3.50
2022-08-04T04:31:48.653Z,3.50
2022-08-04T04:34:25.834Z,3.87
2022-08-04T04:37:10.720Z,3.40
2022-08-04T04:39:49.852Z,3.53
2022-08-04T04:42:33.446Z,3.53
2022-08-04T04:45:16.227Z,3.50
2022-08-04T04:48:08.461Z,3.57
2022-08-04T04:50:52.718Z,3.40
2022-08-04T04:53:28.577Z,3.77
2022-08-04T04:56:04.563Z,3.50
2022-08-04T04:58:35.256Z,3.67
2022-08-04T05:01:25.056Z,3.47
2022-08-04T05:04:13.149Z,3.90
2022-08-04T05:07:04.023Z,4.07
2022-08-04T05:09:46.129Z,3.50
2022-08-04T05:14:33.078Z,3.90
2022-08-04T05:15:37.353Z,3.90
2022-08-04T05:18:10.286Z,3.77
2022-08-04T05:20:42.526Z,3.53
2022-08-04T05:23:14.580Z,3.90
2022-08-04T05:25:50.062Z,3.57
2022-08-04T05:28:30.781Z,3.90
2022-08-04T05:31:02.381Z,3.70
2022-08-04T05:33:35.618Z,3.07
2022-08-04T05:36:20.823Z,3.50
2022-08-04T05:38:59.845Z,3.27
2022-08-04T05:41:32.259Z,3.17
2022-08-04T05:44:13.363Z,3.27
2022-08-04T05:46:42.344Z,3.07
2022-08-04T05:49:16.609Z,2.77
2022-08-04T05:51:50.486Z,3.47
2022-08-04T05:54:19.563Z,3.27
2022-08-04T05:56:48.679Z,3.00
2022-08-04T05:59:18.061Z,3.00
2022-08-04T06:01:55.614Z,3.30
2022-08-04T06:04:32.172Z,2.97
2022-08-04T06:07:00.566Z,3.40
2022-08-04T06:09:28.798Z,2.60
2022-08-04T06:12:03.826Z,2.93
2022-08-04T06:14:36.907Z,2.70
2022-08-04T06:18:33.856Z,2.83
2022-08-04T06:20:19.305Z,4.27
2022-08-04T06:22:53.420Z,3.90
2022-08-04T06:25:24.956Z,3.60
2022-08-04T06:27:54.740Z,3.60
2022-08-04T06:30:27.506Z,3.50
2022-08-04T06:33:04.048Z,3.10
2022-08-04T06:35:35.149Z,3.00
2022-08-04T06:38:04.203Z,2.97
2022-08-04T06:40:34.552Z,3.00
2022-08-04T06:43:04.980Z,2.70
2022-08-04T06:45:35.426Z,2.80
2022-08-04T06:48:05.227Z,2.80
2022-08-04T06:51:30.649Z,2.80
2022-08-04T06:53:25.591Z,3.03
2022-08-04T06:55:54.894Z,3.03
2022-08-04T06:58:24.155Z,3.10
2022-08-04T07:00:52.923Z,3.22
2022-08-04T07:03:21.813Z,3.10
2022-08-04T07:05:52.644Z,5.18
2022-08-04T07:08:21.684Z,3.40
2022-08-04T07:10:50.503Z,3.58
2022-08-04T07:13:19.845Z,4.05
2022-08-04T07:15:49.618Z,3.40
2022-08-04T07:18:17.801Z,8.15
2022-08-04T07:20:46.951Z,3.80
2022-08-04T07:23:19.712Z,3.00
2022-08-04T07:25:59.801Z,3.45
2022-08-04T07:28:41.678Z,3.15
2022-08-04T07:31:32.002Z,2.85
2022-08-04T07:34:21.450Z,3.20
2022-08-04T07:36:50.239Z,3.30
2022-08-04T07:39:26.463Z,3.42
2022-08-04T07:41:56.539Z,3.03
2022-08-04T07:44:25.210Z,2.90
2022-08-04T07:46:53.370Z,3.80
2022-08-04T07:49:55.001Z,3.10
2022-08-04T07:52:10.244Z,3.58
2022-08-04T07:54:40.567Z,3.03
2022-08-04T07:57:08.518Z,3.40
2022-08-04T07:59:50.139Z,3.17
2022-08-04T08:02:22.191Z,3.42
2022-08-04T08:04:50.415Z,3.38
2022-08-04T08:07:20.399Z,3.10
2022-08-04T08:09:50.071Z,3.00
2022-08-04T08:12:37.698Z,3.20
2022-08-04T08:15:16.161Z,3.15
2022-08-04T08:17:58.836Z,3.00
2022-08-04T08:20:30.851Z,2.92
2022-08-04T08:22:59.957Z,3.15
2022-08-04T08:25:31.262Z,3.58
2022-08-04T08:27:59.419Z,3.20
2022-08-04T08:30:31.443Z,2.80
2022-08-04T08:33:02.451Z,2.80
2022-08-04T08:35:46.869Z,2.90
2022-08-04T08:38:29.934Z,3.03
2022-08-04T08:41:17.804Z,2.83
2022-08-04T08:44:06.855Z,2.78
2022-08-04T08:47:00.214Z,2.80
2022-08-04T08:50:04.372Z,2.72
2022-08-04T08:53:18.276Z,3.00
2022-08-04T08:56:03.361Z,2.72
2022-08-04T08:58:45.705Z,2.33
2022-08-04T09:01:28.445Z,2.97
2022-08-04T09:04:32.216Z,3.25
2022-08-04T09:07:16.435Z,3.42
2022-08-04T09:09:54.504Z,3.10
2022-08-04T09:12:31.238Z,2.80
2022-08-04T09:15:06.562Z,2.75
2022-08-04T09:17:42.093Z,3.15
2022-08-04T09:20:17.527Z,3.00
2022-08-04T09:22:52.877Z,2.90
2022-08-04T09:25:26.044Z,3.40
2022-08-04T09:27:55.961Z,2.90
2022-08-04T09:30:37.828Z,2.95
2022-08-04T09:33:18.072Z,2.40
2022-08-04T09:35:58.292Z,2.65
2022-08-04T09:38:36.049Z,2.50
2022-08-04T09:41:35.889Z,3.28
2022-08-04T09:44:48.767Z,2.90
2022-08-04T09:47:13.966Z,2.95
2022-08-04T09:49:47.205Z,2.45
2022-08-04T09:52:27.937Z,3.03
2022-08-04T09:55:06.537Z,2.70
2022-08-04T09:57:46.817Z,2.90
2022-08-04T10:00:17.741Z,2.78
2022-08-04T10:02:53.326Z,2.40
2022-08-04T10:05:24.140Z,2.47
2022-08-04T10:08:16.495Z,2.25
2022-08-04T10:11:00.765Z,2.47
2022-08-04T10:13:40.540Z,2.53
2022-08-04T10:16:26.059Z,2.25
2022-08-04T10:19:08.012Z,2.58
2022-08-04T10:21:59.212Z,2.70
2022-08-04T10:24:46.376Z,2.60
2022-08-04T10:27:21.771Z,2.30
2022-08-04T10:29:50.572Z,2.42
2022-08-04T10:32:22.377Z,2.22
2022-08-04T10:35:05.258Z,3.08
2022-08-04T10:37:59.334Z,3.03
2022-08-04T10:40:37.788Z,2.50
2022-08-04T10:43:22.045Z,2.70
2022-08-04T10:45:58.006Z,2.90
2022-08-04T10:48:36.420Z,2.10
2022-08-04T10:51:16.626Z,2.70
2022-08-04T10:53:45.681Z,2.55
2022-08-04T10:56:18.927Z,2.70
2022-08-04T10:58:52.403Z,2.40
2022-08-04T11:02:02.110Z,2.67
2022-08-04T11:04:27.334Z,2.30
2022-08-04T11:07:00.003Z,2.38
2022-08-04T11:09:29.945Z,1.95
2022-08-04T11:12:03.716Z,2.10
2022-08-04T11:14:38.853Z,2.47
2022-08-04T11:17:09.285Z,2.15
2022-08-04T11:19:53.196Z,2.10
2022-08-04T11:22:27.513Z,1.77
2022-08-04T11:25:02.794Z,2.00
2022-08-04T11:27:38.411Z,2.22
2022-08-04T11:30:08.769Z,2.25
2022-08-04T11:32:43.131Z,1.90
2022-08-04T11:35:15.264Z,1.75
2022-08-04T11:37:51.047Z,1.75
2022-08-04T11:40:25.588Z,1.77
2022-08-04T11:42:58.210Z,1.88
2022-08-04T11:45:32.377Z,2.10
2022-08-04T11:48:05.778Z,2.00
2022-08-04T11:50:38.905Z,1.77
2022-08-04T11:53:10.237Z,1.77
2022-08-04T11:56:08.420Z,1.67
2022-08-04T11:58:27.460Z,1.60
2022-08-04T12:01:09.637Z,1.73
2022-08-04T12:04:03.462Z,1.67
2022-08-04T12:06:37.902Z,1.63
2022-08-04T12:09:13.982Z,1.63
2022-08-04T12:11:53.238Z,1.70
2022-08-04T12:14:28.021Z,1.30
2022-08-04T12:17:01.541Z,1.33
2022-08-04T12:19:57.063Z,1.40
2022-08-04T12:22:33.298Z,1.35
2022-08-04T12:25:07.843Z,1.30
2022-08-04T12:27:42.949Z,1.48
2022-08-04T12:30:57.761Z,1.40
2022-08-04T12:33:05.209Z,1.40
2022-08-04T12:35:40.146Z,1.25
2022-08-04T12:38:33.153Z,1.30
2022-08-04T12:41:04.090Z,1.50
2022-08-04T12:43:41.054Z,1.30
2022-08-04T12:46:11.744Z,1.23
2022-08-04T12:48:41.148Z,1.27
2022-08-04T12:52:06.436Z,1.00
2022-08-04T12:54:00.122Z,1.63
2022-08-04T12:56:30.829Z,1.23
2022-08-04T12:59:03.510Z,1.02
2022-08-04T13:02:10.271Z,0.90
2022-08-04T13:07:38.236Z,0.98
2022-08-04T13:10:14.116Z,1.20
2022-08-04T13:12:56.212Z,0.95
2022-08-04T13:15:25.439Z,0.90
2022-08-04T13:17:59.788Z,0.90
2022-08-04T13:20:30.450Z,1.13
2022-08-04T13:23:05.950Z,1.30
2022-08-04T13:26:44.934Z,1.52
2022-08-04T13:28:30.547Z,1.77
2022-08-04T13:31:02.843Z,1.83
2022-08-04T13:33:33.686Z,1.80
2022-08-04T13:36:02.915Z,1.98
2022-08-04T13:38:32.500Z,1.60
2022-08-04T13:41:03.393Z,1.70
2022-08-04T13:44:15.558Z,1.60
2022-08-04T13:46:28.093Z,1.40
2022-08-04T13:49:25.853Z,1.20
2022-08-04T13:51:58.233Z,1.40
2022-08-04T13:54:30.338Z,1.25
2022-08-04T13:57:02.143Z,1.45
2022-08-04T13:59:37.745Z,1.50
2022-08-04T14:02:10.808Z,1.40
2022-08-04T14:04:42.436Z,1.30
2022-08-04T14:07:26.719Z,1.60
2022-08-04T14:10:03.118Z,1.40
2022-08-04T14:12:45.557Z,1.50
2022-08-04T14:16:02.993Z,1.40
2022-08-04T14:18:31.992Z,1.40
2022-08-04T14:21:04.976Z,1.50
2022-08-04T14:23:47.365Z,2.20
2022-08-04T14:26:17.936Z,1.60
2022-08-04T14:29:27.129Z,3.45
2022-08-04T14:31:35.523Z,3.63
2022-08-04T14:34:09.731Z,1.88
2022-08-04T14:37:13.416Z,1.42
2022-08-04T14:39:39.187Z,1.25
2022-08-04T14:42:08.181Z,1.48
2022-08-04T14:44:55.230Z,1.40
2022-08-04T14:47:52.534Z,1.50
2022-08-04T14:50:22.804Z,1.23
2022-08-04T14:52:50.893Z,1.30
2022-08-04T14:55:21.869Z,1.50
2022-08-04T14:58:35.899Z,1.30
2022-08-04T15:00:38.616Z,1.50
2022-08-04T15:03:10.508Z,1.30
2022-08-04T15:05:59.979Z,1.60
2022-08-04T15:08:31.741Z,1.02
2022-08-04T15:11:03.172Z,1.10
2022-08-04T15:13:33.166Z,1.38
2022-08-04T15:16:07.819Z,1.40
2022-08-04T15:18:39.320Z,1.50
2022-08-04T15:21:08.455Z,1.20
2022-08-04T15:23:39.703Z,1.65
2022-08-04T15:26:13.056Z,1.40
2022-08-04T15:28:45.777Z,4.10
2022-08-04T15:32:06.536Z,1.60
2022-08-04T15:34:05.445Z,1.30
2022-08-04T15:36:39.601Z,1.20
2022-08-04T15:39:19.384Z,1.30
2022-08-04T15:41:57.731Z,1.27
2022-08-04T15:44:50.253Z,1.30
2022-08-04T15:47:18.986Z,1.35
2022-08-04T15:50:04.361Z,1.40
2022-08-04T15:53:12.467Z,1.40
2022-08-04T15:55:43.022Z,1.67
2022-08-04T15:58:13.426Z,1.42
2022-08-04T16:01:16.797Z,1.33
2022-08-04T16:03:53.074Z,1.65
2022-08-04T16:06:49.845Z,1.70
2022-08-04T16:09:45.115Z,1.40
2022-08-04T16:12:54.587Z,1.60
2022-08-04T16:15:42.560Z,1.80
2022-08-04T16:18:26.421Z,1.55
2022-08-04T16:20:57.550Z,1.48
2022-08-04T16:24:05.796Z,1.75
2022-08-04T16:27:00.784Z,1.85
2022-08-04T16:29:30.629Z,1.58
2022-08-04T16:32:12.076Z,1.40
2022-08-04T16:34:54.824Z,1.98
2022-08-04T16:37:26.704Z,1.60
2022-08-04T16:40:29.825Z,1.90
2022-08-04T16:43:08.219Z,1.50
2022-08-04T16:45:44.378Z,1.67
2022-08-04T16:48:13.356Z,1.40
2022-08-04T16:50:53.366Z,1.58
2022-08-04T16:54:03.709Z,1.60
2022-08-04T16:56:14.237Z,1.60
2022-08-04T16:58:53.735Z,1.42
2022-08-04T17:01:33.018Z,1.55
2022-08-04T17:04:05.131Z,1.50
2022-08-04T17:06:36.304Z,1.55
2022-08-04T17:09:07.082Z,1.55
2022-08-04T17:11:35.094Z,1.48
2022-08-04T17:14:06.355Z,1.60
2022-08-04T17:16:36.376Z,1.70
2022-08-04T17:19:06.242Z,1.60
2022-08-04T17:21:36.702Z,2.05
2022-08-04T17:24:16.306Z,1.42
2022-08-04T17:26:54.297Z,1.75
2022-08-04T17:29:42.960Z,1.50
2022-08-04T17:32:17.177Z,1.77
2022-08-04T17:34:48.725Z,1.50
2022-08-04T17:37:38.813Z,1.60
2022-08-04T17:40:11.771Z,1.55
2022-08-04T17:42:41.337Z,1.98
2022-08-04T17:48:00.393Z,1.90
2022-08-04T17:50:35.662Z,1.98
2022-08-04T17:53:11.525Z,1.70
2022-08-04T17:55:44.614Z,1.63
2022-08-04T17:58:21.338Z,1.60
2022-08-04T18:03:53.404Z,1.63
2022-08-04T18:06:23.100Z,1.90
2022-08-04T18:08:59.255Z,1.90
2022-08-04T18:11:53.767Z,2.03
2022-08-04T18:14:28.833Z,2.33
2022-08-04T18:16:58.481Z,2.15
2022-08-04T18:19:26.446Z,2.33
2022-08-04T18:22:01.037Z,1.83
2022-08-04T18:24:35.934Z,2.13
2022-08-04T18:27:21.765Z,2.20
2022-08-04T18:30:33.256Z,2.38
2022-08-04T18:33:10.162Z,2.58
2022-08-04T18:36:31.219Z,2.00
2022-08-04T18:38:24.897Z,2.22
2022-08-04T18:40:54.691Z,2.00
2022-08-04T18:43:28.583Z,1.77
2022-08-04T18:46:15.005Z,1.63
2022-08-04T18:48:52.238Z,1.80
2022-08-04T18:51:23.614Z,1.80
2022-08-04T18:53:54.970Z,1.60
2022-08-04T18:56:29.810Z,1.92
2022-08-04T18:59:00.306Z,1.60
2022-08-04T19:01:30.049Z,1.58
2022-08-04T19:04:33.031Z,1.80
2022-08-04T19:07:28.860Z,1.70
2022-08-04T19:09:53.912Z,1.90
2022-08-04T19:12:32.798Z,1.90
2022-08-04T19:15:08.623Z,1.88
2022-08-04T19:17:53.642Z,1.88
2022-08-04T19:20:27.230Z,3.80
2022-08-04T19:26:01.613Z,2.15
2022-08-04T19:28:34.813Z,2.05
2022-08-04T19:31:03.949Z,1.85
2022-08-04T19:33:55.375Z,2.00
2022-08-04T19:36:21.259Z,2.90
2022-08-04T19:38:57.276Z,2.50
2022-08-04T19:41:26.604Z,3.05
2022-08-04T19:43:55.118Z,3.50
2022-08-04T19:46:25.015Z,3.85
2022-08-04T19:51:44.124Z,3.30
2022-08-04T19:54:17.045Z,2.90
2022-08-04T19:56:52.033Z,2.40
2022-08-04T19:59:20.221Z,2.35
2022-08-04T20:01:51.116Z,2.17
2022-08-04T20:04:22.780Z,1.88
2022-08-04T20:06:53.984Z,2.10
2022-08-04T20:09:26.708Z,1.92
2022-08-04T20:11:56.140Z,1.98
2022-08-04T20:14:31.399Z,1.70
2022-08-04T20:17:01.168Z,1.50
2022-08-04T20:19:30.289Z,1.77
2022-08-04T20:21:59.965Z,1.85
2022-08-04T20:24:37.524Z,1.67
2022-08-04T20:27:11.581Z,1.80
2022-08-04T20:29:47.435Z,1.70
2022-08-04T20:32:17.333Z,1.73
2022-08-04T20:34:48.009Z,2.00
2022-08-04T20:37:17.408Z,1.80
2022-08-04T20:39:45.435Z,1.88
2022-08-04T20:42:26.967Z,2.08
2022-08-04T20:44:56.092Z,2.33
2022-08-04T20:47:26.128Z,4.78
2022-08-04T20:49:59.010Z,2.58
2022-08-04T20:52:33.107Z,2.55
2022-08-04T20:55:02.491Z,2.25
2022-08-04T20:57:48.681Z,2.28
2022-08-04T21:00:26.412Z,2.20
2022-08-04T21:02:58.137Z,1.77
2022-08-04T21:05:26.515Z,2.05
2022-08-04T21:07:59.865Z,2.00
2022-08-04T21:10:29.020Z,1.88
2022-08-04T21:12:57.752Z,3.63
2022-08-04T21:15:50.695Z,2.45
2022-08-04T21:18:14.422Z,2.28
2022-08-04T21:20:44.985Z,2.35
2022-08-04T21:23:17.451Z,2.40
2022-08-04T21:25:50.005Z,2.00
2022-08-04T21:28:20.489Z,2.63
2022-08-04T21:30:53.182Z,2.00
2022-08-04T21:33:23.590Z,2.08
2022-08-04T21:38:51.522Z,2.55
2022-08-04T21:41:24.771Z,2.50
2022-08-04T21:43:55.671Z,4.55
2022-08-04T21:46:23.740Z,2.75
2022-08-04T21:48:51.740Z,2.45
2022-08-04T21:51:59.017Z,2.40
2022-08-04T21:54:16.895Z,2.60
2022-08-04T21:56:51.249Z,2.63
2022-08-04T21:59:28.583Z,2.70
2022-08-04T22:02:01.459Z,2.50
2022-08-04T22:04:30.672Z,2.35
2022-08-04T22:07:02.930Z,2.30
2022-08-04T22:09:38.513Z,2.38
2022-08-04T22:12:11.903Z,2.63
2022-08-04T22:14:40.939Z,2.30
2022-08-04T22:19:56.823Z,2.70
2022-08-04T22:22:30.189Z,2.80
2022-08-04T22:25:12.419Z,2.70
2022-08-04T22:28:02.718Z,2.42
2022-08-04T22:30:36.766Z,2.65
2022-08-04T22:33:08.685Z,2.67
2022-08-04T22:35:48.801Z,2.60
2022-08-04T22:38:24.514Z,2.45
2022-08-04T22:40:59.609Z,2.53
2022-08-04T22:43:33.743Z,2.78
2022-08-04T22:46:03.936Z,2.60
2022-08-04T22:48:33.662Z,2.70
2022-08-04T22:51:02.772Z,2.90
2022-08-04T22:53:31.632Z,2.40
2022-08-04T22:56:09.890Z,2.78
2022-08-04T22:58:44.827Z,2.60
2022-08-04T23:01:15.074Z,2.33
2022-08-04T23:03:55.031Z,2.35
2022-08-04T23:06:25.236Z,2.53
2022-08-04T23:08:53.823Z,2.50
2022-08-04T23:11:22.933Z,2.25
2022-08-04T23:13:50.779Z,2.33
2022-08-04T23:16:19.013Z,2.30
2022-08-04T23:18:49.062Z,2.60
2022-08-04T23:21:24.716Z,2.55
2022-08-04T23:24:01.050Z,2.33
2022-08-04T23:26:32.528Z,2.13
2022-08-04T23:29:03.571Z,2.40
2022-08-04T23:31:40.993Z,2.47
2022-08-04T23:34:16.782Z,2.60
2022-08-04T23:36:47.508Z,2.22
2022-08-04T23:39:15.689Z,2.33
2022-08-04T23:41:53.888Z,2.50
2022-08-04T23:44:26.837Z,2.33
2022-08-04T23:47:01.898Z,2.30
2022-08-04T23:49:44.229Z,2.60
2022-08-04T23:52:28.193Z,2.45
2022-08-04T23:54:59.598Z,2.78
2022-08-04T23:57:31.623Z,2.50
